createdAt,value
2022-12-07T00:00:13.859Z,10.50
2022-12-07T00:02:47.697Z,8.35
2022-12-07T00:05:20.540Z,8.45
2022-12-07T00:07:53.401Z,11.98
2022-12-07T00:10:26.238Z,10.93
2022-12-07T00:13:00.424Z,10.70
2022-12-07T00:15:36.562Z,10.40
2022-12-07T00:18:09.370Z,11.57
2022-12-07T00:20:42.142Z,12.18
2022-12-07T00:23:14.989Z,10.15
2022-12-07T00:25:50.150Z,12.18
2022-12-07T00:28:24.668Z,11.95
2022-12-07T00:31:02.413Z,11.32
2022-12-07T00:33:36.256Z,11.48
2022-12-07T00:36:11.719Z,9.70
2022-12-07T00:38:44.940Z,11.27
2022-12-07T00:41:20.233Z,12.85
2022-12-07T00:43:55.063Z,12.75
2022-12-07T00:46:28.517Z,12.75
2022-12-07T00:49:01.498Z,11.52
2022-12-07T00:51:34.371Z,12.77
2022-12-07T00:54:07.139Z,9.02
2022-12-07T00:56:39.959Z,11.98
2022-12-07T00:59:15.861Z,11.68
2022-12-07T01:01:48.715Z,13.27
2022-12-07T01:04:21.575Z,12.30
2022-12-07T01:06:54.375Z,11.40
2022-12-07T01:09:27.183Z,13.77
2022-12-07T01:12:00.077Z,9.82
2022-12-07T01:14:34.272Z,11.40
2022-12-07T01:17:07.107Z,12.00
2022-12-07T01:19:40.038Z,13.90
2022-12-07T01:22:12.819Z,12.27
2022-12-07T01:24:47.617Z,12.40
2022-12-07T01:27:22.243Z,11.68
2022-12-07T01:29:56.541Z,12.27
2022-12-07T01:32:29.660Z,11.87
2022-12-07T01:35:02.379Z,9.05
2022-12-07T01:37:37.539Z,11.45
2022-12-07T01:40:12.637Z,12.55
2022-12-07T01:42:45.518Z,11.20
2022-12-07T01:45:41.650Z,11.18
2022-12-07T01:48:17.991Z,10.80
2022-12-07T01:50:53.762Z,10.45
2022-12-07T01:53:30.537Z,10.30
2022-12-07T01:56:03.631Z,12.75
2022-12-07T01:58:36.990Z,10.80
2022-12-07T02:01:11.244Z,11.50
2022-12-07T02:03:46.705Z,12.52
2022-12-07T02:06:23.543Z,11.05
2022-12-07T02:08:56.511Z,12.05
2022-12-07T02:11:29.352Z,11.63
2022-12-07T02:14:02.475Z,11.25
2022-12-07T02:16:48.265Z,10.68
2022-12-07T02:19:52.948Z,10.10
2022-12-07T02:22:51.416Z,10.60
2022-12-07T02:25:35.574Z,10.48
2022-12-07T02:28:14.001Z,11.93
2022-12-07T02:30:50.656Z,11.20
2022-12-07T02:33:30.689Z,10.82
2022-12-07T02:36:09.526Z,11.15
2022-12-07T02:38:49.751Z,10.27
2022-12-07T02:41:29.601Z,10.63
2022-12-07T02:44:05.732Z,10.60
2022-12-07T02:46:43.711Z,11.05
2022-12-07T02:49:17.172Z,11.63
2022-12-07T02:51:50.005Z,12.57
2022-12-07T02:54:24.174Z,8.68
2022-12-07T02:57:04.016Z,10.77
2022-12-07T02:59:48.769Z,10.85
2022-12-07T03:02:31.498Z,9.65
2022-12-07T03:05:19.900Z,9.68
2022-12-07T03:08:01.781Z,9.60
2022-12-07T03:10:42.151Z,8.43
2022-12-07T03:13:27.426Z,9.95
2022-12-07T03:16:07.210Z,12.15
2022-12-07T03:18:46.524Z,10.20
2022-12-07T03:21:22.094Z,10.30
2022-12-07T03:23:58.640Z,12.30
2022-12-07T03:26:37.798Z,12.15
2022-12-07T03:29:15.466Z,12.40
2022-12-07T03:31:52.531Z,13.88
2022-12-07T03:34:34.803Z,12.00
2022-12-07T03:37:13.000Z,11.40
2022-12-07T03:39:54.010Z,11.43
2022-12-07T03:42:27.380Z,12.85
2022-12-07T03:45:00.991Z,10.35
2022-12-07T03:47:37.334Z,12.18
2022-12-07T03:50:17.621Z,11.18
2022-12-07T03:52:56.599Z,10.65
2022-12-07T03:55:33.425Z,11.13
2022-12-07T03:58:11.184Z,10.90
2022-12-07T04:00:45.104Z,10.32
2022-12-07T04:03:18.423Z,10.95
2022-12-07T04:05:53.010Z,10.40
2022-12-07T04:08:25.986Z,9.48
2022-12-07T04:10:59.112Z,11.52
2022-12-07T04:13:51.918Z,11.30
2022-12-07T04:16:24.799Z,9.77
2022-12-07T04:18:57.726Z,9.95
2022-12-07T04:21:31.925Z,10.65
2022-12-07T04:24:05.552Z,9.63
2022-12-07T04:26:38.321Z,9.57
2022-12-07T04:29:11.687Z,10.02
2022-12-07T04:31:45.164Z,8.80
2022-12-07T04:34:19.237Z,10.00
2022-12-07T04:36:53.349Z,10.00
2022-12-07T04:39:27.784Z,10.10
2022-12-07T04:42:01.527Z,10.30
2022-12-07T04:44:46.543Z,9.43
2022-12-07T04:47:37.851Z,9.20
2022-12-07T04:50:29.504Z,8.70
2022-12-07T04:53:04.701Z,7.75
2022-12-07T04:55:38.131Z,8.07
2022-12-07T04:58:10.972Z,8.80
2022-12-07T05:00:43.805Z,9.05
2022-12-07T05:03:16.594Z,9.07
2022-12-07T05:05:49.379Z,10.27
2022-12-07T05:08:23.675Z,9.50
2022-12-07T05:10:56.791Z,11.02
2022-12-07T05:13:29.638Z,9.60
2022-12-07T05:16:04.554Z,8.45
2022-12-07T05:21:10.227Z,8.60
2022-12-07T05:23:44.494Z,9.35
2022-12-07T05:26:17.243Z,8.80
2022-12-07T05:28:53.015Z,9.52
2022-12-07T05:31:27.857Z,8.52
2022-12-07T05:36:33.464Z,8.35
2022-12-07T05:39:08.134Z,9.13
2022-12-07T05:41:58.499Z,8.35
2022-12-07T05:44:31.497Z,7.75
2022-12-07T05:47:05.110Z,7.88
2022-12-07T05:49:38.045Z,8.20
2022-12-07T05:52:10.895Z,10.32
2022-12-07T05:54:45.177Z,9.30
2022-12-07T05:57:18.127Z,7.82
2022-12-07T05:59:49.998Z,8.68
2022-12-07T06:02:22.880Z,9.52
2022-12-07T06:04:56.362Z,7.75
2022-12-07T06:07:29.155Z,8.70
2022-12-07T06:10:03.475Z,9.10
2022-12-07T06:12:35.584Z,8.55
2022-12-07T06:15:27.053Z,8.98
2022-12-07T06:18:02.083Z,9.00
2022-12-07T06:20:34.916Z,9.45
2022-12-07T06:23:07.734Z,9.70
2022-12-07T06:25:41.847Z,8.10
2022-12-07T06:28:14.906Z,8.57
2022-12-07T06:30:47.669Z,8.02
2022-12-07T06:33:20.466Z,8.13
2022-12-07T06:35:53.250Z,8.27
2022-12-07T06:38:26.000Z,8.60
2022-12-07T06:41:00.128Z,7.72
2022-12-07T06:43:32.996Z,8.83
2022-12-07T06:46:06.284Z,8.25
2022-12-07T06:48:39.261Z,7.80
2022-12-07T06:51:12.165Z,7.38
2022-12-07T06:53:44.978Z,9.32
2022-12-07T06:56:19.139Z,8.07
2022-12-07T06:58:52.081Z,8.43
2022-12-07T07:01:25.188Z,8.95
2022-12-07T07:03:58.021Z,7.53
2022-12-07T07:06:30.966Z,6.95
2022-12-07T07:09:04.161Z,8.40
2022-12-07T07:11:38.362Z,9.35
2022-12-07T07:14:11.187Z,9.17
2022-12-07T07:16:44.075Z,8.27
2022-12-07T07:19:16.951Z,8.38
2022-12-07T07:21:49.785Z,9.15
2022-12-07T07:24:22.810Z,9.23
2022-12-07T07:26:56.970Z,8.85
2022-12-07T07:29:29.750Z,8.13
2022-12-07T07:32:06.739Z,8.40
2022-12-07T07:34:39.811Z,8.77
2022-12-07T07:37:18.699Z,8.93
2022-12-07T07:39:54.490Z,9.48
2022-12-07T07:42:28.588Z,8.43
2022-12-07T07:45:01.353Z,8.40
2022-12-07T07:47:34.346Z,6.93
2022-12-07T07:50:08.618Z,7.55
2022-12-07T07:52:41.818Z,9.48
2022-12-07T07:55:14.984Z,10.50
2022-12-07T07:57:54.430Z,8.38
2022-12-07T08:00:28.019Z,7.88
2022-12-07T08:03:01.130Z,8.90
2022-12-07T08:05:33.902Z,10.82
2022-12-07T08:08:06.986Z,9.05
2022-12-07T08:10:39.884Z,8.27
2022-12-07T08:13:14.585Z,10.93
2022-12-07T08:15:49.422Z,10.75
2022-12-07T08:18:22.242Z,9.77
2022-12-07T08:21:01.695Z,7.55
2022-12-07T08:23:39.467Z,16.50
2022-12-07T08:26:14.854Z,5.05
2022-12-07T08:28:49.055Z,9.38
2022-12-07T08:31:22.210Z,9.45
2022-12-07T08:33:55.447Z,7.97
2022-12-07T08:36:28.329Z,8.38
2022-12-07T08:39:30.498Z,15.15
2022-12-07T08:41:54.098Z,9.15
2022-12-07T08:44:28.235Z,9.25
2022-12-07T08:47:04.571Z,9.00
2022-12-07T08:49:41.108Z,8.07
2022-12-07T08:52:13.966Z,9.15
2022-12-07T08:54:47.244Z,9.32
2022-12-07T08:57:20.002Z,9.30
2022-12-07T08:59:54.158Z,11.60
2022-12-07T09:02:27.493Z,8.57
2022-12-07T09:05:00.260Z,10.25
2022-12-07T09:07:35.615Z,10.38
2022-12-07T09:10:09.623Z,8.13
2022-12-07T09:12:42.622Z,10.32
2022-12-07T09:15:17.149Z,10.02
2022-12-07T09:17:50.146Z,8.60
2022-12-07T09:20:27.774Z,8.75
2022-12-07T09:23:01.795Z,9.02
2022-12-07T09:25:34.860Z,8.68
2022-12-07T09:28:07.824Z,7.72
2022-12-07T09:31:21.685Z,8.70
2022-12-07T09:33:40.529Z,7.47
2022-12-07T09:36:13.306Z,8.30
2022-12-07T09:38:46.062Z,6.95
2022-12-07T09:41:19.257Z,7.78
2022-12-07T09:43:52.686Z,7.63
2022-12-07T09:46:27.094Z,6.75
2022-12-07T09:48:59.939Z,6.57
2022-12-07T09:51:33.515Z,6.90
2022-12-07T09:54:06.374Z,6.35
2022-12-07T09:56:39.281Z,7.13
2022-12-07T09:59:18.512Z,6.10
2022-12-07T10:01:52.855Z,5.03
2022-12-07T10:04:27.598Z,6.07
2022-12-07T10:07:00.503Z,6.63
2022-12-07T10:09:36.082Z,5.28
2022-12-07T10:12:11.259Z,4.20
2022-12-07T10:15:07.303Z,4.20
2022-12-07T10:17:49.554Z,5.25
2022-12-07T10:20:27.478Z,4.15
2022-12-07T10:23:03.051Z,4.32
2022-12-07T10:25:39.112Z,3.90
2022-12-07T10:28:16.144Z,4.40
2022-12-07T10:30:53.179Z,4.13
2022-12-07T10:33:36.528Z,3.78
2022-12-07T10:36:24.713Z,3.70
2022-12-07T10:39:04.066Z,3.70
2022-12-07T10:41:36.897Z,4.22
2022-12-07T10:44:23.245Z,2.92
2022-12-07T10:47:08.067Z,3.25
2022-12-07T10:50:12.075Z,2.70
2022-12-07T10:53:10.796Z,3.70
2022-12-07T10:56:00.644Z,3.53
2022-12-07T10:58:44.054Z,3.30
2022-12-07T11:01:26.674Z,3.25
2022-12-07T11:04:16.277Z,3.80
2022-12-07T11:06:56.912Z,2.90
2022-12-07T11:12:56.429Z,2.72
2022-12-07T11:15:38.938Z,3.10
2022-12-07T11:18:19.048Z,5.25
2022-12-07T11:20:56.239Z,2.92
2022-12-07T11:23:42.151Z,2.90
2022-12-07T11:26:22.090Z,2.50
2022-12-07T11:29:11.628Z,2.75
2022-12-07T11:31:59.481Z,2.28
2022-12-07T11:34:40.511Z,2.45
2022-12-07T11:37:19.070Z,2.13
2022-12-07T11:39:57.280Z,2.42
2022-12-07T11:42:36.524Z,2.40
2022-12-07T11:45:16.947Z,1.98
2022-12-07T11:47:56.191Z,1.75
2022-12-07T11:50:35.498Z,2.03
2022-12-07T11:53:16.388Z,2.00
2022-12-07T11:55:54.985Z,1.88
2022-12-07T11:58:51.486Z,2.08
2022-12-07T12:01:48.177Z,2.13
2022-12-07T12:04:42.075Z,2.00
2022-12-07T12:10:21.020Z,2.88
2022-12-07T12:16:15.492Z,1.48
2022-12-07T12:19:12.794Z,1.80
2022-12-07T12:21:48.629Z,1.80
2022-12-07T12:24:25.458Z,1.65
2022-12-07T12:27:04.959Z,1.80
2022-12-07T12:29:41.877Z,1.33
2022-12-07T12:32:19.272Z,1.77
2022-12-07T12:35:21.577Z,2.22
2022-12-07T12:37:55.671Z,1.58
2022-12-07T12:40:50.436Z,1.63
2022-12-07T12:43:47.050Z,2.45
2022-12-07T12:46:49.969Z,1.77
2022-12-07T12:49:43.927Z,1.63
2022-12-07T12:53:10.492Z,2.00
2022-12-07T12:56:09.217Z,1.80
2022-12-07T12:58:46.626Z,1.17
2022-12-07T13:01:44.133Z,1.73
2022-12-07T13:04:55.601Z,1.67
2022-12-07T13:07:59.822Z,1.60
2022-12-07T13:10:44.518Z,2.00
2022-12-07T13:13:38.230Z,1.40
2022-12-07T13:16:40.712Z,1.10
2022-12-07T13:20:00.407Z,1.50
2022-12-07T13:23:00.126Z,2.20
2022-12-07T13:25:39.921Z,1.17
2022-12-07T13:28:18.088Z,1.85
2022-12-07T13:31:02.660Z,1.80
2022-12-07T13:33:36.995Z,1.98
2022-12-07T13:36:19.545Z,1.10
2022-12-07T13:38:58.949Z,1.65
2022-12-07T13:41:32.204Z,2.20
2022-12-07T13:44:11.330Z,1.88
2022-12-07T13:46:52.199Z,1.80
2022-12-07T13:49:27.441Z,1.80
2022-12-07T13:52:17.077Z,2.15
2022-12-07T13:54:58.548Z,1.83
2022-12-07T13:57:35.581Z,1.52
2022-12-07T14:00:17.562Z,1.92
2022-12-07T14:02:58.239Z,3.38
2022-12-07T14:05:32.819Z,2.13
2022-12-07T14:08:07.974Z,2.10
2022-12-07T14:10:44.523Z,3.30
2022-12-07T14:13:32.644Z,2.38
2022-12-07T14:16:19.134Z,1.50
2022-12-07T14:18:52.001Z,1.80
2022-12-07T14:21:27.453Z,2.08
2022-12-07T14:24:13.330Z,1.95
2022-12-07T14:26:49.182Z,2.15
2022-12-07T14:29:33.917Z,2.45
2022-12-07T14:32:21.707Z,2.20
2022-12-07T14:35:03.540Z,2.60
2022-12-07T14:37:36.451Z,2.13
2022-12-07T14:40:14.728Z,2.72
2022-12-07T14:42:53.196Z,1.92
2022-12-07T14:45:26.032Z,2.70
2022-12-07T14:53:55.038Z,2.67
2022-12-07T14:56:30.723Z,2.83
2022-12-07T14:59:05.022Z,3.05
2022-12-07T15:01:38.214Z,2.57
2022-12-07T15:04:11.159Z,2.90
2022-12-07T15:06:44.877Z,2.10
2022-12-07T15:09:17.688Z,2.40
2022-12-07T15:11:50.605Z,3.78
2022-12-07T15:14:24.754Z,3.75
2022-12-07T15:17:23.090Z,3.57
2022-12-07T15:19:50.457Z,3.42
2022-12-07T15:22:23.236Z,4.00
2022-12-07T15:24:56.211Z,3.40
2022-12-07T15:27:29.841Z,4.25
2022-12-07T15:30:05.481Z,10.93
2022-12-07T15:32:38.309Z,3.65
2022-12-07T15:35:11.631Z,13.57
2022-12-07T15:37:44.475Z,4.68
2022-12-07T15:40:17.911Z,4.00
2022-12-07T15:42:50.965Z,3.15
2022-12-07T15:45:24.377Z,2.50
2022-12-07T15:50:49.980Z,2.67
2022-12-07T15:53:22.949Z,2.95
2022-12-07T15:55:55.738Z,4.07
2022-12-07T15:58:29.044Z,4.20
2022-12-07T16:01:12.498Z,4.80
2022-12-07T16:03:46.152Z,3.50
2022-12-07T16:06:20.193Z,4.80
2022-12-07T16:08:53.084Z,4.17
2022-12-07T16:11:26.002Z,4.57
2022-12-07T16:13:58.947Z,3.83
2022-12-07T16:16:33.209Z,3.58
2022-12-07T16:19:06.482Z,4.70
2022-12-07T16:21:39.662Z,4.40
2022-12-07T16:24:13.973Z,4.43
2022-12-07T16:26:50.172Z,3.97
2022-12-07T16:29:24.251Z,5.00
2022-12-07T16:31:58.610Z,4.43
2022-12-07T16:34:31.514Z,3.78
2022-12-07T16:37:05.518Z,3.55
2022-12-07T16:39:38.862Z,3.58
2022-12-07T16:42:11.694Z,4.50
2022-12-07T16:44:44.498Z,5.35
2022-12-07T16:47:18.625Z,3.97
2022-12-07T16:49:51.841Z,6.60
2022-12-07T16:52:24.653Z,5.20
2022-12-07T16:54:57.439Z,4.32
2022-12-07T16:57:32.407Z,4.13
2022-12-07T17:02:39.881Z,4.13
2022-12-07T17:05:12.685Z,3.15
2022-12-07T17:07:45.575Z,4.20
2022-12-07T17:10:18.861Z,3.95
2022-12-07T17:12:52.348Z,4.07
2022-12-07T17:15:24.174Z,4.57
2022-12-07T17:17:59.835Z,4.28
2022-12-07T17:20:32.612Z,4.75
2022-12-07T17:23:05.356Z,3.42
2022-12-07T17:25:38.082Z,3.42
2022-12-07T17:28:10.975Z,4.03
2022-12-07T17:30:43.700Z,3.05
2022-12-07T17:33:17.839Z,3.22
2022-12-07T17:35:50.613Z,3.10
2022-12-07T17:38:23.437Z,3.58
2022-12-07T17:40:56.278Z,3.38
2022-12-07T17:43:29.037Z,3.38
2022-12-07T17:46:08.005Z,4.78
2022-12-07T17:48:42.615Z,4.38
2022-12-07T17:51:33.015Z,3.72
2022-12-07T17:54:06.411Z,4.50
2022-12-07T17:56:39.501Z,4.75
2022-12-07T17:59:12.864Z,5.90
2022-12-07T18:01:46.721Z,5.32
2022-12-07T18:04:21.134Z,5.30
2022-12-07T18:06:53.926Z,6.65
2022-12-07T18:09:27.313Z,4.88
2022-12-07T18:12:00.347Z,5.13
2022-12-07T18:14:33.368Z,4.68
2022-12-07T18:17:06.217Z,5.10
2022-12-07T18:19:40.497Z,6.38
2022-12-07T18:22:13.270Z,7.87
2022-12-07T18:24:46.061Z,7.97
2022-12-07T18:27:18.809Z,12.52
2022-12-07T18:29:51.608Z,17.23
2022-12-07T18:32:24.664Z,6.60
2022-12-07T18:34:58.810Z,5.93
2022-12-07T18:37:33.239Z,4.73
2022-12-07T18:40:07.855Z,5.40
2022-12-07T18:42:40.729Z,4.95
2022-12-07T18:45:13.512Z,4.88
2022-12-07T18:47:46.335Z,5.93
2022-12-07T18:50:20.578Z,4.30
2022-12-07T18:52:53.401Z,6.33
2022-12-07T18:55:26.275Z,6.07
2022-12-07T18:58:00.256Z,5.53
2022-12-07T19:00:35.372Z,4.68
2022-12-07T19:03:08.136Z,5.03
2022-12-07T19:05:42.260Z,4.72
2022-12-07T19:08:15.503Z,4.20
2022-12-07T19:10:48.347Z,5.57
2022-12-07T19:13:21.179Z,3.92
2022-12-07T19:15:53.958Z,3.60
2022-12-07T19:18:26.799Z,3.33
2022-12-07T19:21:03.967Z,4.68
2022-12-07T19:23:36.755Z,3.90
2022-12-07T19:26:10.206Z,3.58
2022-12-07T19:28:43.152Z,3.30
2022-12-07T19:31:16.765Z,3.10
2022-12-07T19:33:49.727Z,3.45
2022-12-07T19:36:23.938Z,3.00
2022-12-07T19:38:56.760Z,2.83
2022-12-07T19:41:35.688Z,2.97
2022-12-07T19:44:11.897Z,3.47
2022-12-07T19:46:47.500Z,2.83
2022-12-07T19:49:21.507Z,3.50
2022-12-07T19:51:57.527Z,3.47
2022-12-07T19:54:31.907Z,4.28
2022-12-07T19:57:07.000Z,3.10
2022-12-07T19:59:40.100Z,3.42
2022-12-07T20:02:15.344Z,4.10
2022-12-07T20:04:49.312Z,4.07
2022-12-07T20:07:23.574Z,4.45
2022-12-07T20:09:56.391Z,5.20
2022-12-07T20:12:46.754Z,5.85
2022-12-07T20:15:19.576Z,5.50
2022-12-07T20:17:52.393Z,5.90
2022-12-07T20:20:25.342Z,5.82
2022-12-07T20:22:59.508Z,4.95
2022-12-07T20:25:36.086Z,5.28
2022-12-07T20:28:11.222Z,4.95
2022-12-07T20:33:20.796Z,4.65
2022-12-07T20:35:53.950Z,6.70
2022-12-07T20:38:29.160Z,5.70
2022-12-07T20:41:04.476Z,5.82
2022-12-07T20:43:37.505Z,7.07
2022-12-07T20:46:13.082Z,6.28
2022-12-07T20:48:45.909Z,6.95
2022-12-07T20:51:19.202Z,7.22
2022-12-07T20:53:53.432Z,6.85
2022-12-07T20:56:29.017Z,7.55
2022-12-07T20:59:05.544Z,5.78
2022-12-07T21:01:38.588Z,6.43
2022-12-07T21:04:13.508Z,7.22
2022-12-07T21:06:46.419Z,8.32
2022-12-07T21:09:26.497Z,9.48
2022-12-07T21:11:59.315Z,7.30
2022-12-07T21:14:32.269Z,8.18
2022-12-07T21:17:05.063Z,10.35
2022-12-07T21:19:38.240Z,8.40
2022-12-07T21:22:11.070Z,8.82
2022-12-07T21:24:45.274Z,9.68
2022-12-07T21:27:18.441Z,8.98
2022-12-07T21:29:54.466Z,9.38
2022-12-07T21:32:27.338Z,7.63
2022-12-07T21:35:00.195Z,9.63
2022-12-07T21:37:33.160Z,10.10
2022-12-07T21:40:13.600Z,9.70
2022-12-07T21:42:50.184Z,10.10
2022-12-07T21:45:22.983Z,9.68
2022-12-07T21:47:55.787Z,9.43
2022-12-07T21:50:28.568Z,10.68
2022-12-07T21:53:01.390Z,11.43
2022-12-07T21:55:35.654Z,9.15
2022-12-07T21:58:08.476Z,9.98
2022-12-07T22:00:41.477Z,9.32
2022-12-07T22:03:14.355Z,10.52
2022-12-07T22:05:47.275Z,9.38
2022-12-07T22:08:20.411Z,9.98
2022-12-07T22:10:55.053Z,10.35
2022-12-07T22:13:48.643Z,9.60
2022-12-07T22:16:20.455Z,8.20
2022-12-07T22:18:53.396Z,9.82
2022-12-07T22:21:26.861Z,9.88
2022-12-07T22:23:59.979Z,9.77
2022-12-07T22:26:34.666Z,10.30
2022-12-07T22:29:07.730Z,8.38
2022-12-07T22:31:41.787Z,10.57
2022-12-07T22:34:16.903Z,8.43
2022-12-07T22:39:22.423Z,9.20
2022-12-07T22:41:56.554Z,9.32
2022-12-07T22:44:29.380Z,9.20
2022-12-07T22:47:02.243Z,9.93
2022-12-07T22:49:35.301Z,9.02
2022-12-07T22:52:08.279Z,8.85
2022-12-07T22:54:41.049Z,9.98
2022-12-07T22:57:15.598Z,8.02
2022-12-07T22:59:48.393Z,9.30
2022-12-07T23:02:21.279Z,7.28
2022-12-07T23:04:54.060Z,8.23
2022-12-07T23:07:26.917Z,7.18
2022-12-07T23:09:59.945Z,7.47
2022-12-07T23:12:51.419Z,7.47
2022-12-07T23:15:24.224Z,9.20
2022-12-07T23:17:57.005Z,7.10
2022-12-07T23:20:29.962Z,7.28
2022-12-07T23:23:02.788Z,7.43
2022-12-07T23:25:35.584Z,7.60
2022-12-07T23:28:09.764Z,7.45
2022-12-07T23:30:42.601Z,6.70
2022-12-07T23:33:15.503Z,7.95
2022-12-07T23:35:48.535Z,6.40
2022-12-07T23:38:21.383Z,7.07
2022-12-07T23:40:54.222Z,7.43
2022-12-07T23:43:31.191Z,7.30
2022-12-07T23:46:09.279Z,6.45
2022-12-07T23:48:42.641Z,8.23
2022-12-07T23:51:16.539Z,4.65
2022-12-07T23:53:52.749Z,7.30
2022-12-07T23:56:27.752Z,6.00
2022-12-07T23:59:03.251Z,6.75
